首页
METAR-TAF:

METAR-TAF

机场 :

盐湖城国际机场

盐湖城, 犹他州, 美国

纬度: 40-46-41N, 经度: 111-58-10W, 海拔: 1288米

当前天气观测

该预报发布于1小时和4分钟前的00:54 UTC
风速10节,风向北转东北
温度 17°C
湿度 45%
气压 1018 hPa
能見度: 16.1公里
多云层高于9500英尺
阴天层高于20000英尺

METAR: KSLC 220054Z 02010KT 10SM BKN095 OVC200 17/05 A3007 RMK AO2 SLP157 T01720050

时间: 19:58 (01:58 UTC)

预报

该预报发布于2小时和30分钟前的23:28 UTC
预报有效从22日的 00点(UTC)到 23日的 06点(UTC)
风速5节,风向西北
能見度: 10公里
散云层高于7000英尺
多云层高于9000英尺
从 22日的 0300点(UTC)
风速6节,风向南转南东
能見度: 10公里
散云层高于8000英尺
多云层高于18000英尺
从 22日的 2000点(UTC)
风速7节,风向西转西北
能見度: 10公里
散云层高于5000英尺
多云层高于8000英尺
附近有阵雨

TAF: KSLC 212328Z 2200/2306 31005KT P6SM SCT070 BKN090 FM220300 15006KT P6SM SCT080 BKN180 FM222000 29007KT P6SM VCSH SCT050 BKN080

超过4000个机场的气象观测和天气预报(METAR&TAF报告)。

可查询的气象台以黄色和红色小点在地图上表示。

将鼠标移到小点上方,可查看气象台名称。

然后点击查看天气观测和预报。

如需切换地图:点击带黑十字的绿色按钮放大地图;点击带横线的绿色按钮缩小地图;或者点击绿色箭头查看邻近地区的地图。


METAR-TAF: